CheckWX is a tool to help pilots better visualize weather data.  It is not intended as a substitute for an official pre-flight weather briefing.

12:15:46 UTC

DAOB TAF
Bou Chekif Airport
Tiaret, Algeria
TAF DAOB 031700Z 0318/0418 31010KT 9999 SCT023 PROB40 TEMPO 0318/0320 31015G25KT 5000 -RA BKN015 FEW023TCU FEW026CB BECMG 0320/0324 VRB02KT PROB40 0402/0407 0800 FG BKN012 BECMG 0407/0410 12012KT BECMG 0414/0417 VRB02KT

Apr-3@
18:00 UTC

Apr-3 @ 18:00 UTC

Apr-3@
20:00 UTC

Apr-3 @ 20:00 UTC

TAF DAOB 031700Z 0318/0418 31010KT 9999 SCT023

Expired

Wind
  • 310° at 10 KTS
Cloud Levels
  • Scattered at 2,300' AGL

Apr-3@
18:00 UTC

Apr-3 @ 18:00 UTC

Apr-3@
20:00 UTC

Apr-3 @ 20:00 UTC

PROB40 TEMPO 0318/0320 31015G25KT 5000 -RA BKN015 FEW023TCU FEW026CB

Expired

Wind
  • 310° at 15 KTS
  • {Gusting to 25 KTS
Conditions
Light Rain
Cloud Levels
  • Broken at 1,500' AGL
  • Few at 2,300' AGL
  • Few at 2,600' AGL

Apr-3@
20:00 UTC

Apr-3 @ 20:00 UTC

Apr-4@
07:00 UTC

Apr-4 @ 07:00 UTC

BECMG 0320/0324 VRB02KT

Expired

Wind
  • Variable at 2 KTS
Cloud Levels
  • Scattered at 2,300' AGL

Apr-4@
02:00 UTC

Apr-4 @ 02:00 UTC

Apr-4@
07:00 UTC

Apr-4 @ 07:00 UTC

PROB40 0402/0407 0800 FG BKN012

Expired

Conditions
Fog
Cloud Levels
  • Broken at 1,200' AGL

Apr-4@
07:00 UTC

Apr-4 @ 07:00 UTC

Apr-4@
14:00 UTC

Apr-4 @ 14:00 UTC

BECMG 0407/0410 12012KT

Becoming

Becoming Conditions expected by Sat, Apr 4, 2020 @ 10:00 UTC

Wind
  • 120° at 12 KTS
Cloud Levels
  • Scattered at 2,300' AGL

Apr-4@
14:00 UTC

Apr-4 @ 14:00 UTC

Apr-4@
18:00 UTC

Apr-4 @ 18:00 UTC

BECMG 0414/0417 VRB02KT

Becoming

Becoming Conditions expected by Sat, Apr 4, 2020 @ 17:00 UTC

Wind
  • Variable at 2 KTS
Cloud Levels
  • Scattered at 2,300' AGL